createdAt,value
2023-05-13T00:00:50.379Z,98206.00
2023-05-13T00:04:52.442Z,98197.59
2023-05-13T00:08:54.469Z,98185.63
2023-05-13T00:12:56.474Z,98196.41
2023-05-13T00:16:59.439Z,98185.88
2023-05-13T00:21:01.454Z,98183.94
2023-05-13T00:25:04.130Z,98183.81
2023-05-13T00:29:06.256Z,98177.97
2023-05-13T00:33:08.569Z,98171.38
2023-05-13T00:37:12.073Z,98177.66
2023-05-13T00:41:14.213Z,98181.75
2023-05-13T00:45:17.105Z,98186.63
2023-05-13T00:49:19.174Z,98182.09
2023-05-13T00:53:21.538Z,98175.88
2023-05-13T00:57:23.584Z,98180.03
2023-05-13T01:01:59.000Z,98186.69
2023-05-13T01:06:10.916Z,98184.56
2023-05-13T01:10:39.912Z,98189.34
2023-05-13T01:14:59.480Z,98181.06
2023-05-13T01:19:35.411Z,98185.06
2023-05-13T01:23:37.848Z,98184.97
2023-05-13T01:27:41.152Z,98185.78
2023-05-13T01:31:46.215Z,98184.06
2023-05-13T01:35:48.670Z,98182.34
2023-05-13T01:39:52.593Z,98178.19
2023-05-13T01:43:54.828Z,98180.94
2023-05-13T01:47:57.792Z,98181.00
2023-05-13T01:52:01.785Z,98185.59
2023-05-13T01:56:04.493Z,98190.41
2023-05-13T02:00:08.076Z,98193.94
2023-05-13T02:04:16.675Z,98186.25
2023-05-13T02:08:19.125Z,98187.38
2023-05-13T02:12:21.753Z,98190.19
2023-05-13T02:16:23.838Z,98188.41
2023-05-13T02:20:26.490Z,98186.53
2023-05-13T02:24:30.691Z,98182.00
2023-05-13T02:28:32.692Z,98178.34
2023-05-13T02:32:34.869Z,98177.41
2023-05-13T02:36:37.035Z,98180.56
2023-05-13T02:40:40.631Z,98174.63
2023-05-13T02:44:42.819Z,98169.31
2023-05-13T02:48:47.399Z,98165.19
2023-05-13T02:52:49.554Z,98171.38
2023-05-13T02:56:51.813Z,98174.41
2023-05-13T03:00:53.975Z,98169.94
2023-05-13T03:05:00.147Z,98174.19
2023-05-13T03:09:02.157Z,98173.09
2023-05-13T03:13:04.251Z,98170.44
2023-05-13T03:17:07.008Z,98173.97
2023-05-13T03:21:09.811Z,98183.81
2023-05-13T03:25:11.933Z,98188.47
2023-05-13T03:29:22.108Z,98187.66
2023-05-13T03:33:24.665Z,98190.41
2023-05-13T03:37:27.375Z,98192.13
2023-05-13T03:41:29.580Z,98202.41
2023-05-13T03:45:33.876Z,98202.59
2023-05-13T03:49:40.968Z,98201.84
2023-05-13T03:53:43.275Z,98199.53
2023-05-13T03:57:48.215Z,98201.13
2023-05-13T04:01:52.741Z,98198.44
2023-05-13T04:05:54.794Z,98199.34
2023-05-13T04:09:56.853Z,98204.53
2023-05-13T04:13:59.356Z,98201.75
2023-05-13T04:18:01.584Z,98205.13
2023-05-13T04:22:03.784Z,98208.63
2023-05-13T04:26:05.876Z,98207.16
2023-05-13T04:30:08.544Z,98213.31
2023-05-13T04:34:12.223Z,98208.19
2023-05-13T04:38:15.045Z,98211.97
2023-05-13T04:42:17.544Z,98214.91
2023-05-13T04:46:19.717Z,98213.47
2023-05-13T04:50:22.065Z,98211.16
2023-05-13T04:54:24.674Z,98215.78
2023-05-13T04:58:28.046Z,98216.25
2023-05-13T05:02:30.284Z,98216.75
2023-05-13T05:06:33.349Z,98215.44
2023-05-13T05:10:35.671Z,98218.41
2023-05-13T05:14:38.174Z,98216.91
2023-05-13T05:18:43.404Z,98229.72
2023-05-13T05:22:45.937Z,98239.44
2023-05-13T05:26:48.612Z,98243.59
2023-05-13T05:30:52.007Z,98239.38
2023-05-13T05:35:02.238Z,98246.88
2023-05-13T05:39:04.682Z,98247.03
2023-05-13T05:43:10.934Z,98249.72
2023-05-13T05:47:13.314Z,98257.25
2023-05-13T05:51:15.637Z,98253.09
2023-05-13T05:55:17.678Z,98254.66
2023-05-13T05:59:19.948Z,98260.19
2023-05-13T06:03:22.533Z,98256.56
2023-05-13T06:07:25.063Z,98253.97
2023-05-13T06:11:27.182Z,98256.59
2023-05-13T06:15:29.259Z,98262.97
2023-05-13T06:19:31.280Z,98263.25
2023-05-13T06:23:33.321Z,98266.22
2023-05-13T06:27:36.554Z,98258.25
2023-05-13T06:31:38.632Z,98255.00
2023-05-13T06:35:40.898Z,98247.75
2023-05-13T06:39:44.746Z,98249.09
2023-05-13T06:43:48.769Z,98247.94
2023-05-13T06:47:56.741Z,98249.50
2023-05-13T06:51:58.952Z,98241.63
2023-05-13T06:56:01.021Z,98254.13
2023-05-13T07:00:03.775Z,98254.63
2023-05-13T07:04:05.879Z,98244.91
2023-05-13T07:08:08.584Z,98253.28
2023-05-13T07:12:11.041Z,98247.75
2023-05-13T07:16:13.997Z,98238.84
2023-05-13T07:20:16.177Z,98246.25
2023-05-13T07:24:18.183Z,98250.31
2023-05-13T07:28:23.122Z,98244.25
2023-05-13T07:32:25.221Z,98244.84
2023-05-13T07:36:27.895Z,98246.97
2023-05-13T07:40:30.032Z,98244.47
2023-05-13T07:44:32.045Z,98237.88
2023-05-13T07:48:34.097Z,98242.41
2023-05-13T07:52:36.365Z,98240.28
2023-05-13T07:56:38.526Z,98242.94
2023-05-13T08:00:40.530Z,98245.09
2023-05-13T08:04:42.629Z,98235.41
2023-05-13T08:08:44.662Z,98245.84
2023-05-13T08:12:51.058Z,98239.25
2023-05-13T08:16:53.389Z,98245.00
2023-05-13T08:20:55.643Z,98250.69
2023-05-13T08:24:59.379Z,98245.72
2023-05-13T08:29:01.416Z,98248.47
2023-05-13T08:33:03.779Z,98250.66
2023-05-13T08:37:06.226Z,98244.72
2023-05-13T08:41:10.096Z,98238.53
2023-05-13T08:45:13.265Z,98242.19
2023-05-13T08:49:15.605Z,98244.50
2023-05-13T08:53:18.836Z,98242.16
2023-05-13T08:57:21.562Z,98234.28
2023-05-13T09:01:26.339Z,98250.69
2023-05-13T09:05:28.762Z,98245.00
2023-05-13T09:09:31.045Z,98241.09
2023-05-13T09:13:33.233Z,98243.44
2023-05-13T09:17:39.038Z,98240.69
2023-05-13T09:21:41.261Z,98233.78
2023-05-13T09:25:43.342Z,98233.63
2023-05-13T09:29:45.358Z,98229.19
2023-05-13T09:33:53.491Z,98234.94
2023-05-13T09:37:55.552Z,98237.91
2023-05-13T09:41:57.885Z,98229.19
2023-05-13T09:46:04.697Z,98225.59
2023-05-13T09:50:08.960Z,98227.31
2023-05-13T09:54:12.577Z,98228.13
2023-05-13T09:58:15.865Z,98228.03
2023-05-13T10:02:18.841Z,98227.06
2023-05-13T10:06:24.586Z,98222.28
2023-05-13T10:10:28.050Z,98224.91
2023-05-13T10:14:30.876Z,98221.25
2023-05-13T10:18:33.191Z,98224.56
2023-05-13T10:22:35.915Z,98222.16
2023-05-13T10:26:38.054Z,98229.03
2023-05-13T10:30:41.149Z,98223.28
2023-05-13T10:34:45.131Z,98206.47
2023-05-13T10:39:24.967Z,98209.19
2023-05-13T10:43:29.269Z,98194.72
2023-05-13T10:47:35.377Z,98198.66
2023-05-13T10:51:37.545Z,98199.69
2023-05-13T10:55:45.973Z,98195.34
2023-05-13T11:00:17.324Z,98183.19
2023-05-13T11:04:21.386Z,98175.78
2023-05-13T11:08:43.380Z,98180.66
2023-05-13T11:13:14.051Z,98170.03
2023-05-13T11:17:19.995Z,98173.72
2023-05-13T11:21:33.408Z,98174.28
2023-05-13T11:25:36.050Z,98168.66
2023-05-13T11:29:38.952Z,98168.47
2023-05-13T11:34:07.410Z,98168.81
2023-05-13T11:38:09.812Z,98163.25
2023-05-13T11:42:11.948Z,98160.31
2023-05-13T11:46:22.946Z,98147.69
2023-05-13T11:50:30.491Z,98153.44
2023-05-13T11:54:40.191Z,98160.75
2023-05-13T11:58:42.271Z,98153.47
2023-05-13T12:02:46.116Z,98147.69
2023-05-13T12:06:49.013Z,98154.56
2023-05-13T12:10:51.232Z,98147.53
2023-05-13T12:14:55.458Z,98160.50
2023-05-13T12:19:06.096Z,98155.38
2023-05-13T12:23:11.766Z,98172.38
2023-05-13T12:27:14.084Z,98178.03
2023-05-13T12:31:17.553Z,98216.66
2023-05-13T12:35:19.893Z,98234.19
2023-05-13T12:39:23.939Z,98244.59
2023-05-13T12:43:25.986Z,98260.28
2023-05-13T12:47:27.973Z,98252.25
2023-05-13T12:51:30.377Z,98250.63
2023-05-13T12:55:32.766Z,98239.66
2023-05-13T12:59:34.787Z,98241.28
2023-05-13T13:03:36.905Z,98233.13
2023-05-13T13:07:42.044Z,98224.69
2023-05-13T13:11:44.119Z,98220.31
2023-05-13T13:15:46.639Z,98216.59
2023-05-13T13:19:48.628Z,98205.25
2023-05-13T13:23:50.725Z,98207.09
2023-05-13T13:27:52.749Z,98186.69
2023-05-13T13:31:54.825Z,98189.31
2023-05-13T13:35:56.908Z,98178.56
2023-05-13T13:39:58.982Z,98175.78
2023-05-13T13:44:00.999Z,98167.41
2023-05-13T13:48:03.307Z,98168.53
2023-05-13T13:52:05.449Z,98152.47
2023-05-13T13:56:07.488Z,98160.13
2023-05-13T14:00:10.022Z,98155.16
2023-05-13T14:04:16.339Z,98153.28
2023-05-13T14:08:18.462Z,98155.03
2023-05-13T14:12:20.593Z,98148.44
2023-05-13T14:16:22.872Z,98154.91
2023-05-13T14:20:25.052Z,98151.63
2023-05-13T14:24:27.611Z,98154.56
2023-05-13T14:28:29.612Z,98154.16
2023-05-13T14:32:31.679Z,98156.44
2023-05-13T14:36:33.750Z,98160.28
2023-05-13T14:40:35.902Z,98159.66
2023-05-13T14:44:38.017Z,98174.41
2023-05-13T14:48:40.133Z,98162.47
2023-05-13T14:52:42.574Z,98167.47
2023-05-13T14:56:45.300Z,98158.78
2023-05-13T15:00:48.716Z,98161.66
2023-05-13T15:04:50.747Z,98159.00
2023-05-13T15:08:52.742Z,98150.34
2023-05-13T15:12:54.876Z,98151.00
2023-05-13T15:16:57.119Z,98148.38
2023-05-13T15:20:59.206Z,98143.69
2023-05-13T15:25:01.232Z,98149.97
2023-05-13T15:29:03.316Z,98140.53
2023-05-13T15:33:05.512Z,98143.38
2023-05-13T15:37:07.622Z,98141.66
2023-05-13T15:41:09.658Z,98141.16
2023-05-13T15:45:11.624Z,98138.69
2023-05-13T15:49:13.828Z,98133.59
2023-05-13T15:53:16.020Z,98135.22
2023-05-13T15:57:19.126Z,98134.34
2023-05-13T16:01:21.316Z,98129.50
2023-05-13T16:05:23.363Z,98116.44
2023-05-13T16:09:25.420Z,98120.19
2023-05-13T16:13:27.412Z,98113.25
2023-05-13T16:17:29.527Z,98116.59
2023-05-13T16:21:31.611Z,98123.09
2023-05-13T16:25:34.187Z,98123.19
2023-05-13T16:29:36.194Z,98141.47
2023-05-13T16:33:38.301Z,98131.81
2023-05-13T16:37:40.347Z,98119.38
2023-05-13T16:41:42.368Z,98118.66
2023-05-13T16:45:44.431Z,98117.41
2023-05-13T16:49:48.392Z,98121.53
2023-05-13T16:53:50.422Z,98119.97
2023-05-13T16:57:53.929Z,98109.44
2023-05-13T17:01:56.083Z,98109.03
2023-05-13T17:05:58.235Z,98124.59
2023-05-13T17:10:00.252Z,98119.09
2023-05-13T17:14:03.264Z,98121.66
2023-05-13T17:18:05.347Z,98119.78
2023-05-13T17:22:07.458Z,98121.78
2023-05-13T17:26:09.709Z,98122.00
2023-05-13T17:30:12.144Z,98118.72
2023-05-13T17:34:14.094Z,98113.84
2023-05-13T17:38:16.088Z,98116.09
2023-05-13T17:42:18.107Z,98116.38
2023-05-13T17:46:20.121Z,98120.72
2023-05-13T17:50:22.359Z,98123.47
2023-05-13T17:54:24.554Z,98121.75
2023-05-13T17:58:26.586Z,98134.53
2023-05-13T18:02:28.608Z,98141.72
2023-05-13T18:06:31.051Z,98166.06
2023-05-13T18:10:33.121Z,98159.94
2023-05-13T18:14:35.216Z,98157.41
2023-05-13T18:18:37.309Z,98154.34
2023-05-13T18:22:39.433Z,98155.69
2023-05-13T18:26:41.465Z,98157.16
2023-05-13T18:30:43.624Z,98158.00
2023-05-13T18:34:45.661Z,98150.31
2023-05-13T18:38:48.005Z,98165.94
2023-05-13T18:42:50.026Z,98169.28
2023-05-13T18:46:52.516Z,98166.41
2023-05-13T18:50:54.518Z,98169.31
2023-05-13T18:54:56.484Z,98176.66
2023-05-13T18:58:58.567Z,98178.84
2023-05-13T19:03:00.863Z,98182.25
2023-05-13T19:07:03.117Z,98182.09
2023-05-13T19:11:05.115Z,98189.78
2023-05-13T19:15:07.799Z,98189.31
2023-05-13T19:19:09.925Z,98193.31
2023-05-13T19:23:13.584Z,98193.97
2023-05-13T19:27:15.640Z,98196.50
2023-05-13T19:31:17.756Z,98190.81
2023-05-13T19:35:19.824Z,98188.97
2023-05-13T19:39:21.826Z,98187.56
2023-05-13T19:43:24.731Z,98200.72
2023-05-13T19:47:27.151Z,98203.28
2023-05-13T19:51:29.338Z,98200.94
2023-05-13T19:55:31.987Z,98204.06
2023-05-13T19:59:35.901Z,98198.19
2023-05-13T20:03:38.010Z,98205.38
2023-05-13T20:07:40.164Z,98204.72
2023-05-13T20:11:42.236Z,98200.13
2023-05-13T20:15:44.494Z,98204.00
2023-05-13T20:19:47.591Z,98204.25
2023-05-13T20:23:49.579Z,98207.06
2023-05-13T20:27:51.618Z,98206.78
2023-05-13T20:31:53.721Z,98199.69
2023-05-13T20:35:55.706Z,98204.91
2023-05-13T20:39:57.749Z,98206.25
2023-05-13T20:43:59.739Z,98203.75
2023-05-13T20:48:01.830Z,98203.09
2023-05-13T20:52:04.808Z,98207.31
2023-05-13T20:56:09.887Z,98203.75
2023-05-13T21:00:12.630Z,98197.66
2023-05-13T21:04:14.767Z,98190.75
2023-05-13T21:08:16.995Z,98191.94
2023-05-13T21:12:18.996Z,98198.50
2023-05-13T21:16:21.146Z,98196.44
2023-05-13T21:20:23.428Z,98203.91
2023-05-13T21:24:25.689Z,98197.25
2023-05-13T21:28:28.493Z,98200.66
2023-05-13T21:32:30.640Z,98203.88
2023-05-13T21:36:33.754Z,98195.25
2023-05-13T21:40:36.032Z,98198.44
2023-05-13T21:44:38.099Z,98198.41
2023-05-13T21:48:40.182Z,98197.97
2023-05-13T21:52:42.202Z,98203.69
2023-05-13T21:56:44.250Z,98200.44
2023-05-13T22:00:46.310Z,98199.53
2023-05-13T22:04:48.307Z,98197.97
2023-05-13T22:08:50.354Z,98204.75
2023-05-13T22:12:52.348Z,98203.75
2023-05-13T22:17:07.885Z,98195.88
2023-05-13T22:21:11.495Z,98192.66
2023-05-13T22:25:13.538Z,98198.97
2023-05-13T22:29:15.538Z,98189.13
2023-05-13T22:33:18.566Z,98184.16
2023-05-13T22:37:20.558Z,98180.63
2023-05-13T22:41:23.726Z,98183.06
2023-05-13T22:45:25.844Z,98182.44
2023-05-13T22:49:27.944Z,98182.88
2023-05-13T22:53:29.995Z,98186.81
2023-05-13T22:57:32.010Z,98178.97
2023-05-13T23:01:34.025Z,98164.44
2023-05-13T23:05:36.087Z,98168.53
2023-05-13T23:09:38.121Z,98177.31
2023-05-13T23:13:40.111Z,98179.13
2023-05-13T23:17:42.316Z,98177.84
2023-05-13T23:21:44.406Z,98179.75
2023-05-13T23:25:47.447Z,98178.81
2023-05-13T23:29:49.468Z,98180.41
2023-05-13T23:33:51.509Z,98173.31
2023-05-13T23:37:53.742Z,98171.22
2023-05-13T23:41:55.786Z,98169.22
2023-05-13T23:45:57.832Z,98163.97
2023-05-13T23:50:00.176Z,98167.63
2023-05-13T23:54:02.207Z,98166.53
2023-05-13T23:58:04.314Z,98164.22
